createdAt,value
2022-08-02T00:00:31.049Z,31.10
2022-08-02T00:02:58.095Z,31.10
2022-08-02T00:05:25.241Z,31.10
2022-08-02T00:07:52.308Z,31.10
2022-08-02T00:10:19.749Z,31.00
2022-08-02T00:12:46.710Z,31.00
2022-08-02T00:15:15.894Z,31.00
2022-08-02T00:17:44.490Z,31.00
2022-08-02T00:20:14.377Z,31.00
2022-08-02T00:22:41.458Z,31.00
2022-08-02T00:25:08.857Z,30.90
2022-08-02T00:27:36.055Z,31.00
2022-08-02T00:30:03.789Z,30.90
2022-08-02T00:32:31.061Z,31.00
2022-08-02T00:34:58.104Z,30.90
2022-08-02T00:37:25.145Z,30.90
2022-08-02T00:39:52.181Z,30.90
2022-08-02T00:42:19.279Z,30.90
2022-08-02T00:44:46.360Z,30.90
2022-08-02T00:47:14.973Z,30.90
2022-08-02T00:49:47.055Z,30.90
2022-08-02T00:52:14.501Z,30.90
2022-08-02T00:54:41.807Z,30.90
2022-08-02T00:57:08.942Z,30.90
2022-08-02T00:59:36.243Z,30.90
2022-08-02T01:02:03.486Z,30.90
2022-08-02T01:04:32.243Z,30.90
2022-08-02T01:07:01.020Z,30.80
2022-08-02T01:09:28.598Z,30.80
2022-08-02T01:11:56.069Z,30.80
2022-08-02T01:14:25.018Z,30.80
2022-08-02T01:17:23.014Z,30.70
2022-08-02T01:20:00.509Z,30.70
2022-08-02T01:23:01.152Z,30.70
2022-08-02T01:25:50.858Z,30.70
2022-08-02T01:28:55.702Z,30.70
2022-08-02T01:31:47.754Z,30.70
2022-08-02T01:34:35.696Z,30.70
2022-08-02T01:37:09.488Z,30.60
2022-08-02T01:39:38.319Z,30.60
2022-08-02T01:42:06.699Z,30.60
2022-08-02T01:44:39.073Z,30.60
2022-08-02T01:47:11.209Z,30.60
2022-08-02T01:49:42.212Z,30.50
2022-08-02T01:52:22.247Z,30.50
2022-08-02T01:54:54.571Z,30.50
2022-08-02T01:57:23.159Z,30.50
2022-08-02T01:59:51.446Z,30.50
2022-08-02T02:02:20.426Z,30.40
2022-08-02T02:04:49.184Z,30.40
2022-08-02T02:07:18.889Z,30.40
2022-08-02T02:09:50.805Z,30.40
2022-08-02T02:12:19.752Z,30.40
2022-08-02T02:14:51.661Z,30.30
2022-08-02T02:17:52.817Z,30.30
2022-08-02T02:20:19.038Z,30.30
2022-08-02T02:22:49.654Z,30.20
2022-08-02T02:25:20.152Z,30.20
2022-08-02T02:28:11.396Z,30.20
2022-08-02T02:30:42.156Z,30.20
2022-08-02T02:33:11.771Z,30.20
2022-08-02T02:35:39.683Z,30.20
2022-08-02T02:38:11.281Z,30.10
2022-08-02T02:40:40.393Z,30.10
2022-08-02T02:43:09.769Z,30.10
2022-08-02T02:45:39.203Z,30.10
2022-08-02T02:48:08.260Z,30.10
2022-08-02T02:50:39.030Z,30.10
2022-08-02T02:53:07.028Z,30.00
2022-08-02T02:55:34.477Z,30.00
2022-08-02T02:58:02.913Z,30.00
2022-08-02T03:00:49.028Z,30.00
2022-08-02T03:03:19.712Z,30.00
2022-08-02T03:05:48.623Z,30.00
2022-08-02T03:08:15.848Z,29.90
2022-08-02T03:10:45.122Z,29.90
2022-08-02T03:13:13.016Z,29.90
2022-08-02T03:15:41.117Z,29.90
2022-08-02T03:18:08.669Z,29.90
2022-08-02T03:20:35.955Z,29.80
2022-08-02T03:23:03.168Z,29.80
2022-08-02T03:25:30.342Z,29.80
2022-08-02T03:27:57.391Z,29.80
2022-08-02T03:30:26.923Z,29.80
2022-08-02T03:32:54.397Z,29.80
2022-08-02T03:35:24.049Z,29.80
2022-08-02T03:37:54.167Z,29.80
2022-08-02T03:40:21.618Z,29.80
2022-08-02T03:42:50.390Z,29.80
2022-08-02T03:45:18.380Z,29.70
2022-08-02T03:47:47.365Z,29.70
2022-08-02T03:50:15.034Z,29.70
2022-08-02T03:52:43.254Z,29.70
2022-08-02T03:55:11.728Z,29.70
2022-08-02T03:57:40.069Z,29.70
2022-08-02T04:00:13.179Z,29.60
2022-08-02T04:02:40.968Z,29.60
2022-08-02T04:05:08.782Z,29.60
2022-08-02T04:08:35.059Z,29.60
2022-08-02T04:10:22.997Z,29.60
2022-08-02T04:12:50.194Z,29.60
2022-08-02T04:15:17.355Z,29.60
2022-08-02T04:17:49.595Z,29.50
2022-08-02T04:20:27.191Z,29.50
2022-08-02T04:23:06.474Z,29.50
2022-08-02T04:25:40.312Z,29.50
2022-08-02T04:28:16.806Z,29.50
2022-08-02T04:30:49.883Z,29.50
2022-08-02T04:33:17.608Z,29.50
2022-08-02T04:35:45.799Z,29.50
2022-08-02T04:38:15.009Z,29.50
2022-08-02T04:40:50.961Z,29.50
2022-08-02T04:43:18.223Z,29.50
2022-08-02T04:45:47.208Z,29.50
2022-08-02T04:48:14.162Z,29.50
2022-08-02T04:50:41.382Z,29.50
2022-08-02T04:53:08.585Z,29.50
2022-08-02T04:55:35.657Z,29.50
2022-08-02T04:58:06.662Z,29.50
2022-08-02T05:00:35.185Z,29.50
2022-08-02T05:03:02.851Z,29.50
2022-08-02T05:05:29.984Z,29.50
2022-08-02T05:07:57.105Z,29.50
2022-08-02T05:10:24.507Z,29.50
2022-08-02T05:12:51.981Z,29.50
2022-08-02T05:15:19.272Z,29.50
2022-08-02T05:17:48.640Z,29.50
2022-08-02T05:20:19.787Z,29.50
2022-08-02T05:22:47.353Z,29.50
2022-08-02T05:25:14.799Z,29.50
2022-08-02T05:27:42.000Z,29.50
2022-08-02T05:30:10.433Z,29.50
2022-08-02T05:32:48.647Z,29.50
2022-08-02T05:35:23.612Z,29.50
2022-08-02T05:37:52.001Z,29.50
2022-08-02T05:40:25.759Z,29.50
2022-08-02T05:42:54.264Z,29.50
2022-08-02T05:45:21.896Z,29.50
2022-08-02T05:47:49.160Z,29.40
2022-08-02T05:50:20.751Z,29.40
2022-08-02T05:52:51.604Z,29.40
2022-08-02T05:55:32.647Z,29.40
2022-08-02T05:58:41.820Z,29.40
2022-08-02T06:01:12.830Z,29.40
2022-08-02T06:03:52.179Z,29.40
2022-08-02T06:06:23.444Z,29.40
2022-08-02T06:09:01.319Z,29.40
2022-08-02T06:11:42.573Z,29.40
2022-08-02T06:14:31.969Z,29.40
2022-08-02T06:17:00.916Z,29.40
2022-08-02T06:19:32.230Z,29.40
2022-08-02T06:22:31.918Z,29.40
2022-08-02T06:25:04.862Z,29.40
2022-08-02T06:27:33.189Z,29.40
2022-08-02T06:30:01.844Z,29.40
2022-08-02T06:32:29.039Z,29.40
2022-08-02T06:34:56.060Z,29.40
2022-08-02T06:37:31.160Z,29.40
2022-08-02T06:40:28.320Z,29.40
2022-08-02T06:43:17.111Z,29.50
2022-08-02T06:45:44.811Z,29.40
2022-08-02T06:48:12.072Z,29.50
2022-08-02T06:50:39.762Z,29.50
2022-08-02T06:53:07.347Z,29.50
2022-08-02T06:55:42.733Z,29.50
2022-08-02T06:58:12.380Z,29.50
2022-08-02T07:00:39.914Z,29.50
2022-08-02T07:03:07.217Z,29.50
2022-08-02T07:05:36.752Z,29.50
2022-08-02T07:08:04.370Z,29.50
2022-08-02T07:10:31.422Z,29.50
2022-08-02T07:13:00.029Z,29.50
2022-08-02T07:15:27.233Z,29.60
2022-08-02T07:17:54.359Z,29.60
2022-08-02T07:20:21.418Z,29.60
2022-08-02T07:22:48.481Z,29.60
2022-08-02T07:25:18.605Z,29.60
2022-08-02T07:27:45.677Z,29.50
2022-08-02T07:30:12.831Z,29.50
2022-08-02T07:32:39.875Z,29.50
2022-08-02T07:35:07.752Z,29.40
2022-08-02T07:37:54.743Z,29.40
2022-08-02T07:40:24.204Z,29.40
2022-08-02T07:42:57.855Z,29.40
2022-08-02T07:45:30.235Z,29.50
2022-08-02T07:47:57.387Z,29.50
2022-08-02T07:50:25.782Z,29.50
2022-08-02T07:52:57.262Z,29.50
2022-08-02T07:55:39.112Z,29.50
2022-08-02T07:58:12.320Z,29.50
2022-08-02T08:00:40.919Z,29.50
2022-08-02T08:03:08.042Z,29.60
2022-08-02T08:05:35.067Z,29.60
2022-08-02T08:08:02.198Z,29.60
2022-08-02T08:10:29.278Z,29.60
2022-08-02T08:12:56.313Z,29.60
2022-08-02T08:15:23.422Z,29.60
2022-08-02T08:17:50.549Z,29.60
2022-08-02T08:20:17.640Z,29.60
2022-08-02T08:22:44.771Z,29.60
2022-08-02T08:25:11.771Z,29.60
2022-08-02T08:27:52.291Z,29.60
2022-08-02T08:30:22.485Z,29.60
2022-08-02T08:32:50.010Z,29.60
2022-08-02T08:35:17.167Z,29.70
2022-08-02T08:37:44.224Z,29.70
2022-08-02T08:40:12.320Z,29.70
2022-08-02T08:42:40.196Z,29.70
2022-08-02T08:45:07.951Z,29.70
2022-08-02T08:47:37.694Z,29.80
2022-08-02T08:50:11.600Z,29.80
2022-08-02T08:52:47.197Z,29.80
2022-08-02T08:55:16.041Z,29.80
2022-08-02T08:57:43.983Z,29.80
2022-08-02T09:00:16.906Z,29.80
2022-08-02T09:02:45.441Z,29.80
2022-08-02T09:05:15.324Z,29.80
2022-08-02T09:07:44.816Z,29.80
2022-08-02T09:10:34.438Z,29.90
2022-08-02T09:13:38.311Z,29.90
2022-08-02T09:16:12.659Z,29.90
2022-08-02T09:18:45.737Z,29.90
2022-08-02T09:21:15.237Z,29.90
2022-08-02T09:23:53.403Z,29.90
2022-08-02T09:26:22.809Z,30.00
2022-08-02T09:28:52.298Z,30.00
2022-08-02T09:31:22.104Z,30.00
2022-08-02T09:34:07.403Z,30.10
2022-08-02T09:36:43.846Z,30.10
2022-08-02T09:39:13.451Z,30.10
2022-08-02T09:41:42.524Z,30.10
2022-08-02T09:44:16.098Z,30.10
2022-08-02T09:46:46.185Z,30.10
2022-08-02T09:49:14.279Z,30.10
2022-08-02T09:51:47.757Z,30.20
2022-08-02T09:54:27.639Z,30.20
2022-08-02T09:56:57.995Z,30.20
2022-08-02T09:59:27.171Z,30.20
2022-08-02T10:01:58.860Z,30.20
2022-08-02T10:04:30.967Z,30.20
2022-08-02T10:07:04.358Z,30.20
2022-08-02T10:09:32.860Z,30.20
2022-08-02T10:12:00.784Z,30.10
2022-08-02T10:14:28.799Z,30.10
2022-08-02T10:16:57.553Z,30.10
2022-08-02T10:20:00.251Z,30.10
2022-08-02T10:22:15.179Z,30.20
2022-08-02T10:24:47.955Z,30.20
2022-08-02T10:27:20.100Z,30.20
2022-08-02T10:29:55.246Z,30.30
2022-08-02T10:32:26.258Z,30.20
2022-08-02T10:35:18.972Z,30.30
2022-08-02T10:37:52.126Z,30.30
2022-08-02T10:40:26.817Z,30.30
2022-08-02T10:42:55.491Z,30.30
2022-08-02T10:45:23.410Z,30.40
2022-08-02T10:47:58.145Z,30.40
2022-08-02T10:50:47.058Z,30.40
2022-08-02T10:53:33.637Z,30.40
2022-08-02T10:56:09.453Z,30.40
2022-08-02T10:58:36.603Z,30.50
2022-08-02T11:01:06.076Z,30.50
2022-08-02T11:03:39.524Z,30.60
2022-08-02T11:06:24.571Z,30.60
2022-08-02T11:09:32.912Z,30.60
2022-08-02T11:12:02.207Z,30.60
2022-08-02T11:14:29.735Z,30.70
2022-08-02T11:16:56.696Z,30.70
2022-08-02T11:19:24.909Z,30.70
2022-08-02T11:22:06.196Z,30.70
2022-08-02T11:24:38.173Z,30.70
2022-08-02T11:27:16.675Z,30.80
2022-08-02T11:29:46.124Z,30.80
2022-08-02T11:32:31.936Z,30.80
2022-08-02T11:34:59.180Z,30.80
2022-08-02T11:37:30.471Z,30.80
2022-08-02T11:39:57.568Z,30.90
2022-08-02T11:42:39.162Z,30.90
2022-08-02T11:45:08.485Z,30.80
2022-08-02T11:47:49.120Z,30.90
2022-08-02T11:50:17.483Z,30.90
2022-08-02T11:52:44.752Z,30.90
2022-08-02T11:55:12.365Z,30.90
2022-08-02T11:58:04.718Z,30.90
2022-08-02T12:00:30.584Z,30.90
2022-08-02T12:02:58.159Z,30.90
2022-08-02T12:05:51.310Z,30.90
2022-08-02T12:08:13.923Z,30.90
2022-08-02T12:10:50.624Z,31.00
2022-08-02T12:13:17.730Z,31.00
2022-08-02T12:15:47.188Z,31.00
2022-08-02T12:18:35.002Z,31.00
2022-08-02T12:21:03.732Z,31.00
2022-08-02T12:23:30.917Z,31.10
2022-08-02T12:26:06.363Z,31.00
2022-08-02T12:28:40.685Z,31.10
2022-08-02T12:31:14.104Z,31.10
2022-08-02T12:33:51.681Z,31.20
2022-08-02T12:36:27.994Z,31.20
2022-08-02T12:38:58.072Z,31.10
2022-08-02T12:41:31.323Z,31.20
2022-08-02T12:43:59.928Z,31.10
2022-08-02T12:46:27.232Z,31.20
2022-08-02T12:49:16.950Z,31.10
2022-08-02T12:51:51.098Z,31.10
2022-08-02T12:54:31.077Z,31.20
2022-08-02T12:57:11.805Z,31.20
2022-08-02T12:59:45.148Z,31.30
2022-08-02T13:02:13.662Z,31.30
2022-08-02T13:04:42.150Z,31.30
2022-08-02T13:07:18.386Z,31.40
2022-08-02T13:09:46.860Z,31.40
2022-08-02T13:12:14.576Z,31.40
2022-08-02T13:14:42.729Z,31.40
2022-08-02T13:17:11.451Z,31.50
2022-08-02T13:19:38.919Z,31.50
2022-08-02T13:22:06.378Z,31.50
2022-08-02T13:24:39.674Z,31.60
2022-08-02T13:27:22.289Z,31.60
2022-08-02T13:29:50.798Z,31.60
2022-08-02T13:32:21.177Z,31.70
2022-08-02T13:34:48.883Z,31.70
2022-08-02T13:37:19.032Z,31.70
2022-08-02T13:40:05.446Z,31.70
2022-08-02T13:42:34.284Z,31.70
2022-08-02T13:45:12.143Z,31.70
2022-08-02T13:48:04.884Z,31.80
2022-08-02T13:50:32.513Z,31.80
2022-08-02T13:52:59.728Z,31.90
2022-08-02T13:55:26.910Z,32.00
2022-08-02T13:57:54.368Z,32.00
2022-08-02T14:00:34.700Z,32.00
2022-08-02T14:03:07.859Z,32.10
2022-08-02T14:05:48.358Z,32.10
2022-08-02T14:08:20.696Z,32.10
2022-08-02T14:10:48.897Z,32.20
2022-08-02T14:13:16.620Z,32.20
2022-08-02T14:15:44.195Z,32.30
2022-08-02T14:18:12.031Z,32.40
2022-08-02T14:20:39.083Z,32.50
2022-08-02T14:23:06.869Z,32.50
2022-08-02T14:25:33.982Z,32.70
2022-08-02T14:28:01.115Z,32.70
2022-08-02T14:30:28.648Z,32.80
2022-08-02T14:32:56.754Z,32.90
2022-08-02T14:35:23.872Z,33.00
2022-08-02T14:37:51.132Z,33.10
2022-08-02T14:40:30.667Z,33.20
2022-08-02T14:43:04.087Z,33.30
2022-08-02T14:45:40.961Z,33.40
2022-08-02T14:48:10.288Z,33.50
2022-08-02T14:50:37.310Z,33.60
2022-08-02T14:53:04.347Z,33.80
2022-08-02T14:55:31.362Z,33.90
2022-08-02T14:57:58.424Z,34.00
2022-08-02T15:00:25.508Z,34.10
2022-08-02T15:02:52.582Z,34.20
2022-08-02T15:05:19.687Z,34.40
2022-08-02T15:07:49.666Z,34.50
2022-08-02T15:10:16.944Z,34.60
2022-08-02T15:12:46.100Z,34.70
2022-08-02T15:15:13.249Z,34.80
2022-08-02T15:17:40.601Z,34.90
2022-08-02T15:20:25.801Z,35.10
2022-08-02T15:22:53.227Z,35.40
2022-08-02T15:25:22.024Z,35.70
2022-08-02T15:27:49.369Z,36.20
2022-08-02T15:30:16.610Z,36.70
2022-08-02T15:32:53.429Z,37.10
2022-08-02T15:35:21.340Z,37.50
2022-08-02T15:37:48.417Z,37.90
2022-08-02T15:40:15.420Z,38.20
2022-08-02T15:42:43.754Z,38.50
2022-08-02T15:45:14.685Z,38.70
2022-08-02T15:47:48.123Z,39.00
2022-08-02T15:50:18.486Z,39.20
2022-08-02T15:52:45.488Z,39.30
2022-08-02T15:55:13.261Z,39.50
2022-08-02T15:57:40.431Z,39.60
2022-08-02T16:00:18.011Z,39.80
2022-08-02T16:02:46.994Z,39.90
2022-08-02T16:05:17.719Z,40.10
2022-08-02T16:07:46.115Z,40.20
2022-08-02T16:10:13.708Z,40.30
2022-08-02T16:12:40.784Z,40.30
2022-08-02T16:15:08.548Z,40.20
2022-08-02T16:17:54.077Z,39.90
2022-08-02T16:20:23.254Z,39.70
2022-08-02T16:22:50.371Z,39.40
2022-08-02T16:25:17.652Z,39.10
2022-08-02T16:27:57.805Z,38.90
2022-08-02T16:30:32.371Z,38.70
2022-08-02T16:32:59.477Z,38.50
2022-08-02T16:35:30.464Z,38.40
2022-08-02T16:37:57.592Z,38.40
2022-08-02T16:40:24.744Z,38.50
2022-08-02T16:42:51.941Z,38.80
2022-08-02T16:45:20.938Z,39.20
2022-08-02T16:47:56.201Z,39.60
2022-08-02T16:50:28.644Z,40.10
2022-08-02T16:52:59.009Z,40.50
2022-08-02T16:55:30.292Z,40.80
2022-08-02T16:57:58.659Z,41.00
2022-08-02T17:00:27.151Z,41.20
2022-08-02T17:02:54.223Z,41.40
2022-08-02T17:05:29.870Z,41.40
2022-08-02T17:08:07.133Z,41.50
2022-08-02T17:10:44.684Z,41.50
2022-08-02T17:13:12.149Z,41.50
2022-08-02T17:16:07.677Z,41.50
2022-08-02T17:18:28.890Z,41.50
2022-08-02T17:20:56.338Z,41.40
2022-08-02T17:23:23.443Z,41.30
2022-08-02T17:26:10.623Z,41.10
2022-08-02T17:29:14.078Z,41.10
2022-08-02T17:31:43.008Z,41.10
2022-08-02T17:34:12.674Z,41.20
2022-08-02T17:36:39.778Z,41.10
2022-08-02T17:39:07.481Z,40.80
2022-08-02T17:41:37.834Z,40.50
2022-08-02T17:44:16.800Z,40.10
2022-08-02T17:47:06.268Z,39.80
2022-08-02T17:49:33.679Z,39.40
2022-08-02T17:52:48.320Z,39.20
2022-08-02T17:54:50.143Z,38.90
2022-08-02T17:57:21.585Z,38.50
2022-08-02T18:00:03.575Z,38.30
2022-08-02T18:02:31.527Z,38.10
2022-08-02T18:04:58.581Z,37.90
2022-08-02T18:07:25.623Z,37.70
2022-08-02T18:10:10.267Z,37.70
2022-08-02T18:12:40.321Z,37.50
2022-08-02T18:15:14.758Z,37.40
2022-08-02T18:17:42.041Z,37.30
2022-08-02T18:20:11.156Z,37.20
2022-08-02T18:22:39.707Z,37.10
2022-08-02T18:25:10.239Z,37.00
2022-08-02T18:27:38.970Z,36.90
2022-08-02T18:30:08.833Z,36.80
2022-08-02T18:33:57.103Z,36.70
2022-08-02T18:35:43.411Z,36.50
2022-08-02T18:38:11.887Z,36.40
2022-08-02T18:40:39.333Z,36.30
2022-08-02T18:43:07.265Z,36.20
2022-08-02T18:46:01.599Z,36.10
2022-08-02T18:48:22.589Z,36.00
2022-08-02T18:50:53.081Z,35.90
2022-08-02T18:53:39.217Z,35.80
2022-08-02T18:56:19.283Z,35.70
2022-08-02T18:58:48.556Z,35.60
2022-08-02T19:01:21.864Z,35.50
2022-08-02T19:04:00.515Z,35.40
2022-08-02T19:06:29.310Z,35.30
2022-08-02T19:11:47.478Z,35.10
2022-08-02T19:14:24.042Z,35.10
2022-08-02T19:16:59.782Z,35.00
2022-08-02T19:19:29.035Z,34.90
2022-08-02T19:22:16.413Z,34.80
2022-08-02T19:24:46.212Z,34.80
2022-08-02T19:27:20.853Z,34.70
2022-08-02T19:29:53.968Z,34.60
2022-08-02T19:32:41.732Z,34.60
2022-08-02T19:35:28.432Z,34.50
2022-08-02T19:38:09.641Z,34.50
2022-08-02T19:40:38.878Z,34.40
2022-08-02T19:44:26.682Z,34.40
2022-08-02T19:45:57.228Z,34.30
2022-08-02T19:48:26.868Z,34.30
2022-08-02T19:51:01.093Z,34.20
2022-08-02T19:53:47.194Z,34.10
2022-08-02T19:56:20.419Z,34.10
2022-08-02T19:58:48.600Z,34.10
2022-08-02T20:01:17.313Z,34.00
2022-08-02T20:03:52.602Z,34.00
2022-08-02T20:06:29.300Z,33.90
2022-08-02T20:08:59.288Z,33.80
2022-08-02T20:11:34.931Z,33.80
2022-08-02T20:14:16.828Z,33.80
2022-08-02T20:16:43.889Z,33.70
2022-08-02T20:19:13.883Z,33.70
2022-08-02T20:21:42.819Z,33.70
2022-08-02T20:24:13.592Z,33.60
2022-08-02T20:26:47.736Z,33.60
2022-08-02T20:29:42.492Z,33.50
2022-08-02T20:32:05.246Z,33.50
2022-08-02T20:34:33.571Z,33.50
2022-08-02T20:38:01.381Z,33.40
2022-08-02T20:39:51.864Z,33.40
2022-08-02T20:42:23.304Z,33.30
2022-08-02T20:44:55.461Z,33.30
2022-08-02T20:47:27.591Z,33.30
2022-08-02T20:50:15.421Z,33.20
2022-08-02T20:52:44.266Z,33.20
2022-08-02T20:55:17.221Z,33.20
2022-08-02T20:57:49.136Z,33.10
2022-08-02T21:00:28.022Z,33.10
2022-08-02T21:02:55.731Z,33.00
2022-08-02T21:05:43.795Z,33.00
2022-08-02T21:08:14.014Z,33.00
2022-08-02T21:10:43.469Z,32.90
2022-08-02T21:13:18.960Z,32.90
2022-08-02T21:15:49.551Z,32.80
2022-08-02T21:18:28.088Z,32.80
2022-08-02T21:21:04.148Z,32.70
2022-08-02T21:23:36.512Z,32.70
2022-08-02T21:26:09.165Z,32.70
2022-08-02T21:28:44.165Z,32.60
2022-08-02T21:31:18.531Z,32.60
2022-08-02T21:33:47.135Z,32.60
2022-08-02T21:36:30.741Z,32.60
2022-08-02T21:38:59.304Z,32.50
2022-08-02T21:41:39.837Z,32.50
2022-08-02T21:44:17.044Z,32.40
2022-08-02T21:46:49.802Z,32.40
2022-08-02T21:49:41.010Z,32.40
2022-08-02T21:52:09.187Z,32.40
2022-08-02T21:54:40.017Z,32.30
2022-08-02T21:57:15.504Z,32.30
2022-08-02T21:59:48.370Z,32.30
2022-08-02T22:02:30.538Z,32.30
2022-08-02T22:04:58.454Z,32.20
2022-08-02T22:07:25.606Z,32.20
2022-08-02T22:09:55.659Z,32.20
2022-08-02T22:12:26.365Z,32.20
2022-08-02T22:14:56.338Z,32.20
2022-08-02T22:17:51.574Z,32.20
2022-08-02T22:23:04.060Z,32.10
2022-08-02T22:25:37.333Z,32.10
2022-08-02T22:28:38.113Z,32.10
2022-08-02T22:30:58.142Z,32.00
2022-08-02T22:33:47.428Z,32.00
2022-08-02T22:36:38.655Z,31.90
2022-08-02T22:39:19.123Z,31.90
2022-08-02T22:42:06.614Z,31.90
2022-08-02T22:44:35.407Z,31.90
2022-08-02T22:47:06.992Z,31.80
2022-08-02T22:49:37.800Z,31.80
2022-08-02T22:52:14.213Z,31.70
2022-08-02T22:54:43.434Z,31.70
2022-08-02T22:57:11.420Z,31.70
2022-08-02T22:58:47.003Z,35.20
2022-08-02T22:59:04.667Z,32.20
2022-08-02T22:59:40.640Z,31.70
2022-08-02T23:02:09.336Z,31.60
2022-08-02T23:04:37.805Z,31.60
2022-08-02T23:07:05.026Z,31.60
2022-08-02T23:09:32.027Z,31.60
2022-08-02T23:11:59.374Z,31.50
2022-08-02T23:14:26.475Z,31.50
2022-08-02T23:17:12.516Z,31.50
2022-08-02T23:19:51.969Z,31.40
2022-08-02T23:22:22.049Z,31.40
2022-08-02T23:24:57.449Z,31.40
2022-08-02T23:27:25.084Z,31.40
2022-08-02T23:29:52.040Z,31.40
2022-08-02T23:32:19.094Z,31.30
2022-08-02T23:34:52.859Z,31.30
2022-08-02T23:37:19.951Z,31.30
2022-08-02T23:39:47.053Z,31.30
2022-08-02T23:42:14.663Z,31.20
2022-08-02T23:44:42.096Z,31.20
2022-08-02T23:47:11.012Z,31.20
2022-08-02T23:49:38.192Z,31.20
2022-08-02T23:52:05.346Z,31.20
2022-08-02T23:54:32.277Z,31.10
2022-08-02T23:56:59.394Z,31.20
2022-08-02T23:59:26.418Z,31.10
